Weather at Murray Field

Public forecast

Using degrees Fahrenheit for public forecast. Weather courtesy of forecast.io.

Current aviation weather report (METAR) for Murray Field

Report is more than 6 hours old.

Retrieved 2021/07/30 17:00 UTC (3 months ago):

KEKA 301700Z 33005KT 7SM FEW/// 11/ A2994 RMK AO2 T0111 NOSPECI

Closest aviation forecast (TAF) to Murray Field

Closest forecast is California Redwood Coast-Humboldt County International Airport, 10.5 nm (19.4 km) N. Retrieved 2021/10/15 18:51 UTC (4 hours ago):

TAF KACV 151749Z 1518/1618 30006KT 4SM HZ SCT003 TEMPO 1518/1520 2SM BR BKN003 FM152100 31007KT 6SM HZ SCT004 FM160300 VRB03KT 2SM BR SCT003 FM160800 00000KT 1SM BR BKN002 TEMPO 1615/1617 4SM BR SCT002 FM161700 VRB03KT 4SM BR SCT003